Time;durP1;ratioP1;P1;durP2;ratioP2;P2;SDS_P1;SDS_P2;PMS_P1;PMS_P2;Temp;Humidity;BMP_temperature;BMP_pressure;BME280_temperature;BME280_humidity;BME280_pressure;Samples;Min_cycle;Max_cycle;Signal;HPM_P1;HPM_P2
2023/10/27 00:01:41;;;;;;;;;;;;;;;;;;5112144;28;20060;-61
2023/10/27 00:04:07;;;;;;;;;;;;;;;;;;5089082;28;20367;-61
2023/10/27 00:06:33;;;;;;;;;;;;;;;;;;5112186;28;19995;-61
2023/10/27 00:08:59;;;;;;;;;;;;;;;;;;5091852;28;20004;-60
2023/10/27 00:11:25;;;;;;;;;;;;;;;;;;5089391;28;20014;-60
2023/10/27 00:13:51;;;;;;;;;;;;;;;;;;5110672;28;19924;-61
2023/10/27 00:16:17;;;;;;;;;;;;;;;;;;5064850;28;20305;-61
2023/10/27 00:18:43;;;;;;;;;;;;;;;;;;5071838;28;19931;-61
2023/10/27 00:21:09;;;;;;;;;;;;;;;;;;5101711;28;19923;-61
2023/10/27 00:23:35;;;;;;;;;;;;;;;;;;5083094;28;20610;-61
2023/10/27 00:26:01;;;;;;;;;;;;;;;;;;5077715;28;19946;-61
2023/10/27 00:28:27;;;;;;;;;;;;;;;;;;5081530;28;20037;-61
2023/10/27 00:30:53;;;;;;;;;;;;;;;;;;5083179;28;19927;-61
2023/10/27 00:33:19;;;;;;;;;;;;;;;;;;5071797;28;19985;-61
2023/10/27 00:35:45;;;;;;;;;;;;;;;;;;5095963;28;19924;-61
2023/10/27 00:38:10;;;;;;;;;;;;;;;;;;5076642;28;19920;-61
2023/10/27 00:40:36;;;;;;;;;;;;;;;;;;5094957;28;19970;-61
2023/10/27 00:43:03;;;;;;;;;;;;;;;;;;5089059;28;19924;-61
2023/10/27 00:45:29;;;;;;;;;;;;;;;;;;5092588;28;19925;-59
2023/10/27 00:47:55;;;;;;;;;;;;;;;;;;5094494;28;20419;-59
2023/10/27 00:50:21;;;;;;;;;;;;;;;;;;5095875;28;19920;-60
2023/10/27 00:52:47;;;;;;;;;;;;;;;;;;5098145;28;19973;-60
2023/10/27 00:55:13;;;;;;;;;;;;;;;;;;5098421;28;20382;-60
2023/10/27 00:57:39;;;;;;;;;;;;;;;;;;5079470;28;19920;-60
2023/10/27 01:00:05;;;;;;;;;;;;;;;;;;5067675;28;19923;-60
2023/10/27 01:02:31;;;;;;;;;;;;;;;;;;5095687;28;19924;-60
2023/10/27 01:04:57;;;;;;;;;;;;;;;;;;5095340;28;19928;-60
2023/10/27 01:07:23;;;;;;;;;;;;;;;;;;5093487;28;19921;-61
2023/10/27 01:09:49;;;;;;;;;;;;;;;;;;5092517;28;19924;-61
2023/10/27 01:12:15;;;;;;;;;;;;;;;;;;5090387;28;20439;-61
2023/10/27 01:14:41;;;;;;;;;;;;;;;;;;5091816;28;20328;-61
2023/10/27 01:17:07;;;;;;;;;;;;;;;;;;5087600;28;20064;-61
2023/10/27 01:19:35;;;;;;;;;;;;;;;;;;5093776;28;19924;-61
2023/10/27 01:22:01;;;;;;;;;;;;;;;;;;5107726;28;19931;-61
2023/10/27 01:24:27;;;;;;;;;;;;;;;;;;5109393;28;20288;-61
2023/10/27 01:26:53;;;;;;;;;;;;;;;;;;5101990;28;19931;-61
2023/10/27 01:29:20;;;;;;;;;;;;;;;;;;5090381;28;19924;-61
2023/10/27 01:31:46;;;;;;;;;;;;;;;;;;5108480;28;19920;-61
2023/10/27 01:34:12;;;;;;;;;;;;;;;;;;5056863;28;19937;-61
2023/10/27 01:36:38;;;;;;;;;;;;;;;;;;5080894;28;19973;-61
2023/10/27 01:39:04;;;;;;;;;;;;;;;;;;5078964;28;19972;-61
2023/10/27 01:41:30;;;;;;;;;;;;;;;;;;5056193;28;19930;-61
2023/10/27 01:43:55;;;;;;;;;;;;;;;;;;5079612;28;20780;-61
2023/10/27 01:46:21;;;;;;;;;;;;;;;;;;5082613;28;19930;-61
2023/10/27 01:48:47;;;;;;;;;;;;;;;;;;5078924;28;19920;-61
2023/10/27 01:51:13;;;;;;;;;;;;;;;;;;5085540;28;19923;-61
2023/10/27 01:53:39;;;;;;;;;;;;;;;;;;5087310;28;19970;-61
2023/10/27 01:56:05;;;;;;;;;;;;;;;;;;5088207;28;19928;-61
2023/10/27 01:58:31;;;;;;;;;;;;;;;;;;5086984;28;19951;-60
2023/10/27 02:00:57;;;;;;;;;;;;;;;;;;5080009;28;19920;-60
2023/10/27 02:03:23;;;;;;;;;;;;;;;;;;5098225;28;19924;-61
2023/10/27 02:05:49;;;;;;;;;;;;;;;;;;5091089;28;19924;-60
2023/10/27 02:08:16;;;;;;;;;;;;;;;;;;5079480;28;20261;-60
2023/10/27 02:10:42;;;;;;;;;;;;;;;;;;5084804;28;20399;-61
2023/10/27 02:13:08;;;;;;;;;;;;;;;;;;5083081;28;19929;-61
2023/10/27 02:15:34;;;;;;;;;;;;;;;;;;5097405;28;19920;-61
2023/10/27 02:18:00;;;;;;;;;;;;;;;;;;5075830;28;20644;-61
2023/10/27 02:20:29;;;;;;;;;;;;;;;;;;5062116;28;19928;-60
2023/10/27 02:22:55;;;;;;;;;;;;;;;;;;5077336;28;19920;-60
2023/10/27 02:25:21;;;;;;;;;;;;;;;;;;5087436;28;19973;-60
2023/10/27 02:27:47;;;;;;;;;;;;;;;;;;5074230;28;19955;-60
2023/10/27 02:30:13;;;;;;;;;;;;;;;;;;5086134;28;19928;-60
2023/10/27 02:32:39;;;;;;;;;;;;;;;;;;5091149;28;19932;-61
2023/10/27 02:35:05;;;;;;;;;;;;;;;;;;5068247;28;19920;-61
2023/10/27 02:37:31;;;;;;;;;;;;;;;;;;5073600;28;19928;-61
2023/10/27 02:39:57;;;;;;;;;;;;;;;;;;5074296;28;19943;-61
2023/10/27 02:42:22;;;;;;;;;;;;;;;;;;5087753;28;20347;-61
2023/10/27 02:44:48;;;;;;;;;;;;;;;;;;5090140;28;19920;-61
2023/10/27 02:47:14;;;;;;;;;;;;;;;;;;5092139;28;19979;-61
2023/10/27 02:49:40;;;;;;;;;;;;;;;;;;5085637;28;19920;-61
2023/10/27 02:52:06;;;;;;;;;;;;;;;;;;5094126;28;19928;-61
2023/10/27 02:54:32;;;;;;;;;;;;;;;;;;5079165;28;19928;-62
2023/10/27 02:56:58;;;;;;;;;;;;;;;;;;5066212;28;20447;-61
2023/10/27 02:59:24;;;;;;;;;;;;;;;;;;5049166;28;19970;-61
2023/10/27 03:01:50;;;;;;;;;;;;;;;;;;5075417;28;20008;-61
2023/10/27 03:04:16;;;;;;;;;;;;;;;;;;5091072;28;20364;-61
2023/10/27 03:06:44;;;;;;;;;;;;;;;;;;5086648;28;19925;-61
2023/10/27 03:09:09;;;;;;;;;;;;;;;;;;5086098;28;19924;-61
2023/10/27 03:11:35;;;;;;;;;;;;;;;;;;5056791;28;19926;-61
2023/10/27 03:14:01;;;;;;;;;;;;;;;;;;5092143;28;19924;-61
2023/10/27 03:16:27;;;;;;;;;;;;;;;;;;5085011;28;19924;-62
2023/10/27 03:18:55;;;;;;;;;;;;;;;;;;5077654;28;20463;-61
2023/10/27 03:21:21;;;;;;;;;;;;;;;;;;5062128;28;19924;-61
2023/10/27 03:23:47;;;;;;;;;;;;;;;;;;5071152;28;19928;-61
2023/10/27 03:26:13;;;;;;;;;;;;;;;;;;5086635;28;19963;-61
2023/10/27 03:28:41;;;;;;;;;;;;;;;;;;5098525;28;19919;-61
2023/10/27 03:31:08;;;;;;;;;;;;;;;;;;5083843;28;19924;-61
2023/10/27 03:33:34;;;;;;;;;;;;;;;;;;5071206;28;20309;-61
2023/10/27 03:36:00;;;;;;;;;;;;;;;;;;5076891;28;19924;-61
2023/10/27 03:38:26;;;;;;;;;;;;;;;;;;5093284;28;19945;-61
2023/10/27 03:40:53;;;;;;;;;;;;;;;;;;5071675;28;19993;-59
2023/10/27 03:43:19;;;;;;;;;;;;;;;;;;5088266;28;20010;-60
2023/10/27 03:45:45;;;;;;;;;;;;;;;;;;5072509;28;20003;-61
2023/10/27 03:48:11;;;;;;;;;;;;;;;;;;5078274;28;19920;-60
2023/10/27 03:50:37;;;;;;;;;;;;;;;;;;5090752;28;19920;-60
2023/10/27 03:53:03;;;;;;;;;;;;;;;;;;5091362;28;19928;-60
2023/10/27 03:55:29;;;;;;;;;;;;;;;;;;5081689;28;19933;-61
2023/10/27 03:57:55;;;;;;;;;;;;;;;;;;5072950;28;19956;-60
2023/10/27 04:00:21;;;;;;;;;;;;;;;;;;5082587;28;19928;-60
2023/10/27 04:02:47;;;;;;;;;;;;;;;;;;5082083;28;19926;-60
2023/10/27 04:05:13;;;;;;;;;;;;;;;;;;5073152;28;19930;-60
2023/10/27 04:07:39;;;;;;;;;;;;;;;;;;5079216;28;19927;-60
2023/10/27 04:10:04;;;;;;;;;;;;;;;;;;5047868;28;19928;-60
2023/10/27 04:12:30;;;;;;;;;;;;;;;;;;5079184;28;19928;-60
2023/10/27 04:14:56;;;;;;;;;;;;;;;;;;5086580;28;19927;-61
2023/10/27 04:17:22;;;;;;;;;;;;;;;;;;5063243;28;19976;-60
2023/10/27 04:19:50;;;;;;;;;;;;;;;;;;5080262;28;20274;-60
2023/10/27 04:22:15;;;;;;;;;;;;;;;;;;5089789;28;19920;-60
2023/10/27 04:24:41;;;;;;;;;;;;;;;;;;5093626;28;19924;-60
2023/10/27 04:27:07;;;;;;;;;;;;;;;;;;5088837;28;20723;-60
2023/10/27 04:29:33;;;;;;;;;;;;;;;;;;5069672;28;19970;-60
2023/10/27 04:31:59;;;;;;;;;;;;;;;;;;5090620;28;19920;-60
2023/10/27 04:34:25;;;;;;;;;;;;;;;;;;5091784;28;20026;-60
2023/10/27 04:36:52;;;;;;;;;;;;;;;;;;5094412;28;19920;-60
2023/10/27 04:39:18;;;;;;;;;;;;;;;;;;5085504;28;19927;-60
2023/10/27 04:41:44;;;;;;;;;;;;;;;;;;5085836;28;20312;-60
2023/10/27 04:44:10;;;;;;;;;;;;;;;;;;5059682;28;19925;-60
2023/10/27 04:46:36;;;;;;;;;;;;;;;;;;5091739;28;20403;-60
2023/10/27 04:49:01;;;;;;;;;;;;;;;;;;5087636;28;19920;-60
2023/10/27 04:51:27;;;;;;;;;;;;;;;;;;5085993;28;19924;-60
2023/10/27 04:53:53;;;;;;;;;;;;;;;;;;5086038;28;20023;-61
2023/10/27 04:56:19;;;;;;;;;;;;;;;;;;5088303;28;19928;-60
2023/10/27 04:58:46;;;;;;;;;;;;;;;;;;5090250;28;19926;-61
2023/10/27 05:01:13;;;;;;;;;;;;;;;;;;5098099;28;19924;-61
2023/10/27 05:03:39;;;;;;;;;;;;;;;;;;5077446;28;20318;-61
2023/10/27 05:06:05;;;;;;;;;;;;;;;;;;5052896;28;19999;-61
2023/10/27 05:08:30;;;;;;;;;;;;;;;;;;5093103;28;19934;-61
2023/10/27 05:10:56;;;;;;;;;;;;;;;;;;5085371;28;19953;-61
2023/10/27 05:13:22;;;;;;;;;;;;;;;;;;5095241;28;19919;-60
2023/10/27 05:15:48;;;;;;;;;;;;;;;;;;5089395;28;19928;-60
2023/10/27 05:18:14;;;;;;;;;;;;;;;;;;5087973;28;20345;-60
2023/10/27 05:20:40;;;;;;;;;;;;;;;;;;5082089;28;19920;-60
2023/10/27 05:23:06;;;;;;;;;;;;;;;;;;5086443;28;19924;-60
2023/10/27 05:25:34;;;;;;;;;;;;;;;;;;5092575;28;20354;-61
2023/10/27 05:28:00;;;;;;;;;;;;;;;;;;5086088;28;19928;-61
2023/10/27 05:30:26;;;;;;;;;;;;;;;;;;5080755;28;20297;-61
2023/10/27 05:32:52;;;;;;;;;;;;;;;;;;5083679;28;19925;-61
2023/10/27 05:35:18;;;;;;;;;;;;;;;;;;5085871;28;20369;-61
2023/10/27 05:37:44;;;;;;;;;;;;;;;;;;5081228;28;19928;-61
2023/10/27 05:40:10;;;;;;;;;;;;;;;;;;5090882;28;19925;-61
2023/10/27 05:42:36;;;;;;;;;;;;;;;;;;5092274;28;20304;-61
2023/10/27 05:45:02;;;;;;;;;;;;;;;;;;5081860;28;19920;-61
2023/10/27 05:47:28;;;;;;;;;;;;;;;;;;5067908;28;19931;-61
2023/10/27 05:49:55;;;;;;;;;;;;;;;;;;5088429;28;19920;-61
2023/10/27 05:52:20;;;;;;;;;;;;;;;;;;5080637;28;19927;-61
2023/10/27 05:54:46;;;;;;;;;;;;;;;;;;5083929;28;19928;-61
2023/10/27 05:57:12;;;;;;;;;;;;;;;;;;5090096;28;19927;-61
2023/10/27 05:59:38;;;;;;;;;;;;;;;;;;5082830;28;19920;-61
2023/10/27 06:02:04;;;;;;;;;;;;;;;;;;5055840;28;19921;-62
2023/10/27 06:04:30;;;;;;;;;;;;;;;;;;5089736;28;20395;-61
2023/10/27 06:06:56;;;;;;;;;;;;;;;;;;5091106;28;19923;-60
2023/10/27 06:09:22;;;;;;;;;;;;;;;;;;5087748;22;19949;-64
2023/10/27 06:11:48;;;;;;;;;;;;;;;;;;5092149;28;19929;-63
2023/10/27 06:14:14;;;;;;;;;;;;;;;;;;5098171;28;20370;-63
2023/10/27 06:16:40;;;;;;;;;;;;;;;;;;5086369;28;20573;-63
2023/10/27 06:19:06;;;;;;;;;;;;;;;;;;5084415;28;19927;-63
2023/10/27 06:21:31;;;;;;;;;;;;;;;;;;5083369;28;19923;-63
2023/10/27 06:23:57;;;;;;;;;;;;;;;;;;5085815;28;19924;-63
2023/10/27 06:26:24;;;;;;;;;;;;;;;;;;5074492;28;19920;-62
2023/10/27 06:28:50;;;;;;;;;;;;;;;;;;5097093;28;19920;-63
2023/10/27 06:31:16;;;;;;;;;;;;;;;;;;5089523;28;20479;-63
2023/10/27 06:33:42;;;;;;;;;;;;;;;;;;5088582;28;19936;-62
2023/10/27 06:36:07;;;;;;;;;;;;;;;;;;5078331;28;20050;-62
2023/10/27 06:38:33;;;;;;;;;;;;;;;;;;5094705;28;20019;-63
2023/10/27 06:40:59;;;;;;;;;;;;;;;;;;5092013;28;19930;-62
2023/10/27 06:43:25;;;;;;;;;;;;;;;;;;5074614;28;19928;-62
2023/10/27 06:45:51;;;;;;;;;;;;;;;;;;5095179;28;19926;-63
2023/10/27 06:48:17;;;;;;;;;;;;;;;;;;5089605;28;20354;-62
2023/10/27 06:50:43;;;;;;;;;;;;;;;;;;5077601;28;19923;-63
2023/10/27 06:53:09;;;;;;;;;;;;;;;;;;5076529;28;19928;-63
2023/10/27 06:55:35;;;;;;;;;;;;;;;;;;5072207;28;19928;-64
2023/10/27 06:58:01;;;;;;;;;;;;;;;;;;5079809;28;19927;-63
2023/10/27 07:00:27;;;;;;;;;;;;;;;;;;5072519;28;20442;-64
2023/10/27 07:02:53;;;;;;;;;;;;;;;;;;5106265;28;19920;-64
2023/10/27 07:05:19;;;;;;;;;;;;;;;;;;5101210;28;19939;-64
2023/10/27 07:07:45;;;;;;;;;;;;;;;;;;5095362;28;20404;-64
2023/10/27 07:10:12;;;;;;;;;;;;;;;;;;5095095;28;20327;-64
2023/10/27 07:12:38;;;;;;;;;;;;;;;;;;5087204;28;19925;-64
2023/10/27 07:15:04;;;;;;;;;;;;;;;;;;5102625;28;19981;-63
2023/10/27 07:17:29;;;;;;;;;;;;;;;;;;5095300;28;19928;-63
2023/10/27 07:19:55;;;;;;;;;;;;;;;;;;5065818;28;19920;-63
2023/10/27 07:22:21;;;;;;;;;;;;;;;;;;5085254;28;19920;-64
2023/10/27 07:24:47;;;;;;;;;;;;;;;;;;5078902;28;19934;-63
2023/10/27 07:27:13;;;;;;;;;;;;;;;;;;5091699;28;19927;-64
2023/10/27 07:29:39;;;;;;;;;;;;;;;;;;5081616;28;20445;-63
2023/10/27 07:32:05;;;;;;;;;;;;;;;;;;5064360;28;19960;-64
2023/10/27 07:34:31;;;;;;;;;;;;;;;;;;5099296;28;19979;-64
2023/10/27 07:36:57;;;;;;;;;;;;;;;;;;5085621;28;20014;-64
2023/10/27 07:39:23;;;;;;;;;;;;;;;;;;5082520;28;19920;-64
2023/10/27 07:41:49;;;;;;;;;;;;;;;;;;5093317;28;19920;-65
2023/10/27 07:44:15;;;;;;;;;;;;;;;;;;5090750;28;19963;-64
2023/10/27 07:46:40;;;;;;;;;;;;;;;;;;5092300;28;19985;-65
2023/10/27 07:49:06;;;;;;;;;;;;;;;;;;5106345;28;19923;-64
2023/10/27 07:51:32;;;;;;;;;;;;;;;;;;5102438;28;19931;-65
2023/10/27 07:53:58;;;;;;;;;;;;;;;;;;5092873;28;19950;-65
2023/10/27 07:56:24;;;;;;;;;;;;;;;;;;5091704;28;19931;-64
2023/10/27 07:58:50;;;;;;;;;;;;;;;;;;5086720;28;19920;-62
2023/10/27 08:01:16;;;;;;;;;;;;;;;;;;5084619;28;20457;-62
2023/10/27 08:03:42;;;;;;;;;;;;;;;;;;5076856;28;20390;-64
2023/10/27 08:06:08;;;;;;;;;;;;;;;;;;5085802;28;19928;-64
2023/10/27 08:08:34;;;;;;;;;;;;;;;;;;5090736;28;19926;-63
2023/10/27 08:11:00;;;;;;;;;;;;;;;;;;5083471;28;19924;-64
2023/10/27 08:16:30;;;;;;;;;;;;;;;;;;5055181;28;19928;-64
2023/10/27 08:18:57;;;;;;;;;;;;;;;;;;5069730;28;20038;-64
2023/10/27 08:21:23;;;;;;;;;;;;;;;;;;5063172;28;20577;-65
2023/10/27 08:23:49;;;;;;;;;;;;;;;;;;5075284;28;19959;-64
2023/10/27 08:26:15;;;;;;;;;;;;;;;;;;5071834;28;19931;-64
2023/10/27 08:28:41;;;;;;;;;;;;;;;;;;5065140;28;20324;-64
2023/10/27 08:31:07;;;;;;;;;;;;;;;;;;5073359;28;19927;-64
2023/10/27 08:33:33;;;;;;;;;;;;;;;;;;5083085;28;19935;-64
2023/10/27 08:35:58;;;;;;;;;;;;;;;;;;5057392;28;19924;-65
2023/10/27 08:38:24;;;;;;;;;;;;;;;;;;5083774;28;19986;-64
2023/10/27 08:40:50;;;;;;;;;;;;;;;;;;5082339;28;20040;-64
2023/10/27 08:43:16;;;;;;;;;;;;;;;;;;5089281;28;19927;-64
2023/10/27 08:45:43;;;;;;;;;;;;;;;;;;5076078;28;20011;-65
2023/10/27 08:48:08;;;;;;;;;;;;;;;;;;5077083;28;20013;-63
2023/10/27 08:50:35;;;;;;;;;;;;;;;;;;5075775;28;19959;-63
2023/10/27 08:53:01;;;;;;;;;;;;;;;;;;5082110;28;19924;-63
2023/10/27 08:55:27;;;;;;;;;;;;;;;;;;5079989;28;19927;-63
2023/10/27 08:57:53;;;;;;;;;;;;;;;;;;5072915;28;19923;-63
2023/10/27 09:00:19;;;;;;;;;;;;;;;;;;5092607;28;19924;-64
2023/10/27 09:02:45;;;;;;;;;;;;;;;;;;5099807;28;19931;-64
2023/10/27 09:05:11;;;;;;;;;;;;;;;;;;5071373;28;19924;-65
2023/10/27 09:07:37;;;;;;;;;;;;;;;;;;5076316;28;19924;-67
2023/10/27 09:10:03;;;;;;;;;;;;;;;;;;5077497;28;19924;-64
2023/10/27 09:12:30;;;;;;;;;;;;;;;;;;5070285;28;19931;-64
2023/10/27 09:14:56;;;;;;;;;;;;;;;;;;5077580;28;19920;-64
2023/10/27 09:17:22;;;;;;;;;;;;;;;;;;5065550;28;19921;-64
2023/10/27 09:19:48;;;;;;;;;;;;;;;;;;5087409;28;19932;-63
2023/10/27 09:22:14;;;;;;;;;;;;;;;;;;5082291;28;19924;-63
2023/10/27 09:24:40;;;;;;;;;;;;;;;;;;5075870;28;19927;-64
2023/10/27 09:27:06;;;;;;;;;;;;;;;;;;5085795;28;19927;-64
2023/10/27 09:29:32;;;;;;;;;;;;;;;;;;5080889;28;19978;-64
2023/10/27 09:31:58;;;;;;;;;;;;;;;;;;5083334;28;19924;-64
2023/10/27 09:34:24;;;;;;;;;;;;;;;;;;5060693;28;19923;-63
2023/10/27 09:36:51;;;;;;;;;;;;;;;;;;5092814;28;19928;-64
2023/10/27 09:39:19;;;;;;;;;;;;;;;;;;5093771;28;20013;-64
2023/10/27 09:41:46;;;;;;;;;;;;;;;;;;5094600;28;19925;-64
2023/10/27 09:44:12;;;;;;;;;;;;;;;;;;5097552;28;19998;-64
2023/10/27 09:46:38;;;;;;;;;;;;;;;;;;5066348;28;19932;-64
2023/10/27 09:49:05;;;;;;;;;;;;;;;;;;5097091;28;19927;-64
2023/10/27 09:51:31;;;;;;;;;;;;;;;;;;5092152;28;19974;-64
2023/10/27 09:53:57;;;;;;;;;;;;;;;;;;5095060;28;19923;-65
2023/10/27 09:56:23;;;;;;;;;;;;;;;;;;5085440;28;19973;-63
2023/10/27 09:58:49;;;;;;;;;;;;;;;;;;5088706;28;19931;-63
2023/10/27 10:01:15;;;;;;;;;;;;;;;;;;5070634;28;20388;-64
2023/10/27 10:03:41;;;;;;;;;;;;;;;;;;5079346;28;20018;-64
2023/10/27 10:06:07;;;;;;;;;;;;;;;;;;5046444;28;19981;-64
2023/10/27 10:08:33;;;;;;;;;;;;;;;;;;5089974;28;19931;-64
2023/10/27 10:10:59;;;;;;;;;;;;;;;;;;5070183;28;19924;-64
2023/10/27 10:13:26;;;;;;;;;;;;;;;;;;5091640;28;19928;-64
2023/10/27 10:15:56;;;;;;;;;;;;;;;;;;5093896;28;20285;-63
2023/10/27 10:18:22;;;;;;;;;;;;;;;;;;5111296;28;19981;-64
2023/10/27 10:20:48;;;;;;;;;;;;;;;;;;5088606;28;20353;-64
2023/10/27 10:23:14;;;;;;;;;;;;;;;;;;5092856;28;19998;-63
2023/10/27 10:25:40;;;;;;;;;;;;;;;;;;5078716;28;19920;-63
2023/10/27 10:28:06;;;;;;;;;;;;;;;;;;5090087;28;19931;-63
2023/10/27 10:30:32;;;;;;;;;;;;;;;;;;5092518;28;19931;-64
2023/10/27 10:32:58;;;;;;;;;;;;;;;;;;5087076;28;19932;-64
2023/10/27 10:35:23;;;;;;;;;;;;;;;;;;5064066;28;19932;-64
2023/10/27 10:37:51;;;;;;;;;;;;;;;;;;5084657;28;20360;-64
2023/10/27 10:40:17;;;;;;;;;;;;;;;;;;5101047;28;19920;-64
2023/10/27 10:42:43;;;;;;;;;;;;;;;;;;5086883;28;20016;-64
2023/10/27 10:45:09;;;;;;;;;;;;;;;;;;5095491;28;19920;-64
2023/10/27 10:47:35;;;;;;;;;;;;;;;;;;5092286;28;19936;-64
2023/10/27 10:50:00;;;;;;;;;;;;;;;;;;5079800;28;20328;-64
2023/10/27 10:52:27;;;;;;;;;;;;;;;;;;5093337;28;19978;-64
2023/10/27 10:54:53;;;;;;;;;;;;;;;;;;5076089;28;19932;-64
2023/10/27 10:57:19;;;;;;;;;;;;;;;;;;5077119;28;19920;-64
2023/10/27 10:59:45;;;;;;;;;;;;;;;;;;5073562;28;20478;-64
2023/10/27 11:02:11;;;;;;;;;;;;;;;;;;5074147;28;20333;-64
2023/10/27 11:04:37;;;;;;;;;;;;;;;;;;5092410;28;20393;-65
2023/10/27 11:07:03;;;;;;;;;;;;;;;;;;5065600;28;19936;-64
2023/10/27 11:09:29;;;;;;;;;;;;;;;;;;5082553;28;19975;-64
2023/10/27 11:11:55;;;;;;;;;;;;;;;;;;5086334;28;20319;-65
2023/10/27 11:14:21;;;;;;;;;;;;;;;;;;5095101;28;20469;-64
2023/10/27 11:16:47;;;;;;;;;;;;;;;;;;5087285;28;19931;-64
2023/10/27 11:19:13;;;;;;;;;;;;;;;;;;5089883;28;19920;-64
2023/10/27 11:21:39;;;;;;;;;;;;;;;;;;5084518;28;20453;-64
2023/10/27 11:24:05;;;;;;;;;;;;;;;;;;5080156;28;20022;-64
2023/10/27 11:26:31;;;;;;;;;;;;;;;;;;5082816;28;19952;-64
2023/10/27 11:28:58;;;;;;;;;;;;;;;;;;5063761;28;19926;-64
2023/10/27 11:31:24;;;;;;;;;;;;;;;;;;5066102;28;19924;-64
2023/10/27 11:33:50;;;;;;;;;;;;;;;;;;5083840;28;19985;-64
2023/10/27 11:36:16;;;;;;;;;;;;;;;;;;5081652;28;20354;-64
2023/10/27 11:38:42;;;;;;;;;;;;;;;;;;5083566;28;19920;-64
2023/10/27 11:41:07;;;;;;;;;;;;;;;;;;5092548;28;19928;-64
2023/10/27 11:43:33;;;;;;;;;;;;;;;;;;5062382;28;19924;-64
2023/10/27 11:45:59;;;;;;;;;;;;;;;;;;5081805;28;19927;-64
2023/10/27 11:48:25;;;;;;;;;;;;;;;;;;5085971;28;19967;-64
2023/10/27 11:50:51;;;;;;;;;;;;;;;;;;5065605;28;20014;-64
2023/10/27 11:53:17;;;;;;;;;;;;;;;;;;5079457;28;19983;-62
2023/10/27 11:55:45;;;;;;;;;;;;;;;;;;5066803;28;20478;-63
2023/10/27 11:58:11;;;;;;;;;;;;;;;;;;5094139;28;20011;-64
2023/10/27 12:00:37;;;;;;;;;;;;;;;;;;5082816;28;20040;-63
2023/10/27 12:03:03;;;;;;;;;;;;;;;;;;5086674;28;19924;-63
2023/10/27 12:05:29;;;;;;;;;;;;;;;;;;5071284;28;20262;-63
2023/10/27 12:07:55;;;;;;;;;;;;;;;;;;5058319;28;19924;-64
2023/10/27 12:10:21;;;;;;;;;;;;;;;;;;5022375;28;1746070;-63
2023/10/27 12:12:47;;;;;;;;;;;;;;;;;;5087826;28;20047;-63
2023/10/27 12:15:14;;;;;;;;;;;;;;;;;;5086333;28;19924;-63
2023/10/27 12:17:40;;;;;;;;;;;;;;;;;;5093102;28;19931;-63
2023/10/27 12:20:06;;;;;;;;;;;;;;;;;;5088861;28;19920;-64
2023/10/27 12:22:32;;;;;;;;;;;;;;;;;;5090307;28;19927;-63
2023/10/27 12:24:58;;;;;;;;;;;;;;;;;;5091621;28;19920;-63
2023/10/27 12:27:24;;;;;;;;;;;;;;;;;;5092037;28;19931;-64
2023/10/27 12:29:50;;;;;;;;;;;;;;;;;;5087316;28;19920;-64
2023/10/27 12:32:16;;;;;;;;;;;;;;;;;;5067363;28;19928;-64
2023/10/27 12:34:43;;;;;;;;;;;;;;;;;;5067855;28;20263;-64
2023/10/27 12:37:09;;;;;;;;;;;;;;;;;;5089587;28;20575;-64
2023/10/27 12:39:35;;;;;;;;;;;;;;;;;;5086204;28;19931;-64
2023/10/27 12:42:01;;;;;;;;;;;;;;;;;;5052956;28;19924;-64
2023/10/27 12:44:27;;;;;;;;;;;;;;;;;;5080119;28;19921;-64
2023/10/27 12:46:53;;;;;;;;;;;;;;;;;;5083184;28;19935;-65
2023/10/27 12:49:19;;;;;;;;;;;;;;;;;;5081020;28;20062;-64
2023/10/27 12:51:46;;;;;;;;;;;;;;;;;;5085928;28;19967;-64
2023/10/27 12:54:11;;;;;;;;;;;;;;;;;;5060165;28;19924;-64
2023/10/27 12:56:37;;;;;;;;;;;;;;;;;;5081022;28;19931;-64
2023/10/27 12:59:04;;;;;;;;;;;;;;;;;;5076130;28;19928;-64
2023/10/27 13:01:29;;;;;;;;;;;;;;;;;;5076335;28;20244;-64
2023/10/27 13:03:55;;;;;;;;;;;;;;;;;;5061732;28;19920;-64
2023/10/27 13:06:21;;;;;;;;;;;;;;;;;;5079193;28;19939;-64
2023/10/27 13:08:47;;;;;;;;;;;;;;;;;;5079215;28;19927;-64
2023/10/27 13:11:14;;;;;;;;;;;;;;;;;;5090682;28;19924;-64
2023/10/27 13:13:40;;;;;;;;;;;;;;;;;;5081482;28;20274;-64
2023/10/27 13:16:06;;;;;;;;;;;;;;;;;;5075958;28;20008;-64
2023/10/27 13:18:32;;;;;;;;;;;;;;;;;;5056615;28;19927;-63
2023/10/27 13:20:58;;;;;;;;;;;;;;;;;;5078629;28;19920;-64
2023/10/27 13:23:23;;;;;;;;;;;;;;;;;;5043697;28;19954;-64
2023/10/27 13:25:49;;;;;;;;;;;;;;;;;;5075513;28;20263;-65
2023/10/27 13:28:16;;;;;;;;;;;;;;;;;;5076574;28;19920;-64
2023/10/27 13:30:42;;;;;;;;;;;;;;;;;;5082785;28;19931;-64
2023/10/27 13:33:08;;;;;;;;;;;;;;;;;;5084512;28;19924;-64
2023/10/27 13:35:34;;;;;;;;;;;;;;;;;;5074163;28;20515;-64
2023/10/27 13:38:06;;;;;;;;;;;;;;;;;;5053742;28;19928;-64
2023/10/27 13:40:32;;;;;;;;;;;;;;;;;;5083064;28;19924;-63
2023/10/27 13:42:58;;;;;;;;;;;;;;;;;;5077162;28;20265;-64
2023/10/27 13:45:24;;;;;;;;;;;;;;;;;;5084506;28;19927;-65
2023/10/27 13:47:50;;;;;;;;;;;;;;;;;;5089063;28;19928;-65
2023/10/27 13:50:16;;;;;;;;;;;;;;;;;;5077555;28;19928;-65
2023/10/27 13:52:44;;;;;;;;;;;;;;;;;;5077358;28;20481;-63
2023/10/27 13:55:10;;;;;;;;;;;;;;;;;;5079914;28;19928;-64
2023/10/27 13:57:36;;;;;;;;;;;;;;;;;;5066948;28;20404;-65
2023/10/27 14:00:03;;;;;;;;;;;;;;;;;;5080234;28;19931;-65
2023/10/27 14:02:29;;;;;;;;;;;;;;;;;;5082114;28;19956;-65
2023/10/27 14:04:55;;;;;;;;;;;;;;;;;;5082211;28;20285;-65
2023/10/27 14:07:20;;;;;;;;;;;;;;;;;;5084534;28;19931;-65
2023/10/27 14:09:47;;;;;;;;;;;;;;;;;;5079238;28;19932;-65
2023/10/27 14:12:13;;;;;;;;;;;;;;;;;;5063810;28;19924;-65
2023/10/27 14:14:40;;;;;;;;;;;;;;;;;;5076057;28;19929;-65
2023/10/27 14:17:06;;;;;;;;;;;;;;;;;;5076705;28;19931;-65
2023/10/27 14:19:32;;;;;;;;;;;;;;;;;;5085179;28;20411;-65
2023/10/27 14:21:59;;;;;;;;;;;;;;;;;;5088156;28;19959;-64
2023/10/27 14:24:25;;;;;;;;;;;;;;;;;;5083037;28;19928;-65
2023/10/27 14:26:52;;;;;;;;;;;;;;;;;;5076174;28;19924;-64
2023/10/27 14:29:17;;;;;;;;;;;;;;;;;;5061354;28;19928;-64
2023/10/27 14:31:43;;;;;;;;;;;;;;;;;;5080616;28;20427;-64
2023/10/27 14:34:09;;;;;;;;;;;;;;;;;;5086217;28;19950;-64
2023/10/27 14:36:35;;;;;;;;;;;;;;;;;;5080272;28;21825;-64
2023/10/27 14:39:03;;;;;;;;;;;;;;;;;;5083158;28;19920;-64
2023/10/27 14:41:29;;;;;;;;;;;;;;;;;;5084866;28;19920;-64
2023/10/27 14:43:54;;;;;;;;;;;;;;;;;;5085187;28;20333;-65
2023/10/27 14:46:21;;;;;;;;;;;;;;;;;;5065237;28;19923;-64
2023/10/27 14:48:48;;;;;;;;;;;;;;;;;;5085103;28;20370;-65
2023/10/27 14:51:14;;;;;;;;;;;;;;;;;;5080016;28;19920;-65
2023/10/27 14:53:40;;;;;;;;;;;;;;;;;;5083564;28;20020;-65
2023/10/27 14:56:07;;;;;;;;;;;;;;;;;;5082273;28;20354;-64
2023/10/27 14:58:33;;;;;;;;;;;;;;;;;;5078284;28;19924;-65
2023/10/27 15:00:59;;;;;;;;;;;;;;;;;;5081081;28;19924;-64
2023/10/27 15:03:25;;;;;;;;;;;;;;;;;;5082766;28;19982;-65
2023/10/27 15:05:51;;;;;;;;;;;;;;;;;;5087599;28;20022;-65
2023/10/27 15:08:17;;;;;;;;;;;;;;;;;;5082983;28;19923;-65
2023/10/27 15:10:43;;;;;;;;;;;;;;;;;;5060787;28;20814;-64
2023/10/27 15:13:09;;;;;;;;;;;;;;;;;;5048714;28;19939;-65
2023/10/27 15:15:35;;;;;;;;;;;;;;;;;;5085920;28;19928;-63
2023/10/27 15:18:02;;;;;;;;;;;;;;;;;;5053368;28;20016;-64
2023/10/27 15:20:27;;;;;;;;;;;;;;;;;;5085068;28;19927;-65
2023/10/27 15:22:53;;;;;;;;;;;;;;;;;;5079504;28;19925;-65
2023/10/27 15:25:20;;;;;;;;;;;;;;;;;;5086807;28;19978;-64
2023/10/27 15:27:46;;;;;;;;;;;;;;;;;;5075389;28;20447;-64
2023/10/27 15:30:13;;;;;;;;;;;;;;;;;;5083579;28;20375;-64
2023/10/27 15:32:39;;;;;;;;;;;;;;;;;;5079826;28;19920;-63
2023/10/27 15:35:05;;;;;;;;;;;;;;;;;;5081260;28;19924;-64
2023/10/27 15:37:31;;;;;;;;;;;;;;;;;;5085229;28;19970;-64
2023/10/27 15:39:57;;;;;;;;;;;;;;;;;;5087466;28;19967;-64
2023/10/27 15:42:23;;;;;;;;;;;;;;;;;;5087909;28;19919;-64
2023/10/27 15:44:49;;;;;;;;;;;;;;;;;;5082468;28;19934;-63
2023/10/27 15:47:14;;;;;;;;;;;;;;;;;;5079366;28;20359;-63
2023/10/27 15:49:41;;;;;;;;;;;;;;;;;;5092597;28;20041;-65
2023/10/27 15:52:07;;;;;;;;;;;;;;;;;;5075722;28;19927;-64
2023/10/27 15:54:33;;;;;;;;;;;;;;;;;;5076530;28;19975;-64
2023/10/27 15:56:59;;;;;;;;;;;;;;;;;;5069376;28;19975;-64
2023/10/27 15:59:25;;;;;;;;;;;;;;;;;;5056141;28;19978;-64
2023/10/27 16:01:51;;;;;;;;;;;;;;;;;;5085412;28;19970;-64
2023/10/27 16:04:17;;;;;;;;;;;;;;;;;;5083748;28;20014;-64
2023/10/27 16:06:43;;;;;;;;;;;;;;;;;;5093299;28;20009;-64
2023/10/27 16:09:09;;;;;;;;;;;;;;;;;;5086274;28;19924;-64
2023/10/27 16:11:36;;;;;;;;;;;;;;;;;;5086521;28;19982;-64
2023/10/27 16:14:02;;;;;;;;;;;;;;;;;;5093404;28;19924;-65
2023/10/27 16:16:28;;;;;;;;;;;;;;;;;;5079441;28;19977;-65
2023/10/27 16:18:54;;;;;;;;;;;;;;;;;;5081828;28;19938;-64
2023/10/27 16:21:20;;;;;;;;;;;;;;;;;;5067205;28;19923;-65
2023/10/27 16:23:46;;;;;;;;;;;;;;;;;;5079102;28;19950;-64
2023/10/27 16:26:13;;;;;;;;;;;;;;;;;;5051744;28;19930;-64
2023/10/27 16:28:39;;;;;;;;;;;;;;;;;;5089264;28;19978;-64
2023/10/27 16:31:05;;;;;;;;;;;;;;;;;;5063259;28;20389;-65
2023/10/27 16:33:31;;;;;;;;;;;;;;;;;;5076488;28;19928;-65
2023/10/27 16:35:57;;;;;;;;;;;;;;;;;;5087913;28;19920;-64
2023/10/27 16:38:24;;;;;;;;;;;;;;;;;;5089050;28;20681;-64
2023/10/27 16:40:50;;;;;;;;;;;;;;;;;;5093109;28;19919;-64